createdAt,value
2017-11-09T00:00:05.254Z,8.90
2017-11-09T00:02:32.119Z,8.90
2017-11-09T00:05:04.254Z,9.00
2017-11-09T00:07:30.258Z,9.00
2017-11-09T00:09:56.967Z,8.90
2017-11-09T00:12:22.934Z,8.90
2017-11-09T00:14:48.937Z,8.90
2017-11-09T00:17:15.658Z,8.90
2017-11-09T00:19:41.647Z,8.90
2017-11-09T00:22:08.861Z,8.90
2017-11-09T00:24:35.094Z,8.90
2017-11-09T00:27:01.162Z,9.00
2017-11-09T00:29:28.618Z,9.00
2017-11-09T00:31:54.601Z,9.00
2017-11-09T00:34:20.703Z,8.90
2017-11-09T00:36:47.448Z,8.80
2017-11-09T00:39:14.153Z,8.70
2017-11-09T00:41:40.974Z,8.70
2017-11-09T00:44:06.942Z,8.80
2017-11-09T00:46:33.660Z,8.80
2017-11-09T00:48:59.910Z,8.80
2017-11-09T00:51:26.713Z,8.80
2017-11-09T00:53:52.695Z,8.80
2017-11-09T00:56:18.684Z,8.80
2017-11-09T00:58:45.390Z,8.80
2017-11-09T01:01:11.403Z,8.70
2017-11-09T01:03:37.403Z,8.70
2017-11-09T01:06:03.367Z,8.70
2017-11-09T01:08:29.350Z,8.70
2017-11-09T01:10:55.351Z,8.70
2017-11-09T01:13:21.342Z,8.80
2017-11-09T01:15:48.058Z,8.70
2017-11-09T01:18:14.088Z,8.70
2017-11-09T01:20:40.042Z,8.70
2017-11-09T01:23:06.750Z,8.80
2017-11-09T01:25:32.744Z,8.70
2017-11-09T01:27:58.729Z,8.80
2017-11-09T01:30:25.461Z,8.80
2017-11-09T01:32:52.393Z,8.70
2017-11-09T01:35:18.366Z,8.70
2017-11-09T01:37:44.337Z,8.80
2017-11-09T01:40:10.320Z,8.70
2017-11-09T01:42:36.331Z,8.80
2017-11-09T01:45:02.292Z,8.90
2017-11-09T01:47:28.289Z,8.90
2017-11-09T01:49:54.272Z,8.90
2017-11-09T01:52:20.277Z,9.10
2017-11-09T01:54:47.021Z,9.10
2017-11-09T01:57:13.741Z,9.10
2017-11-09T01:59:40.493Z,9.10
2017-11-09T02:02:07.221Z,9.10
2017-11-09T02:04:33.203Z,9.10
2017-11-09T02:06:59.193Z,9.00
2017-11-09T02:09:25.165Z,8.90
2017-11-09T02:11:51.122Z,9.00
2017-11-09T02:14:18.061Z,8.80
2017-11-09T02:16:44.775Z,8.70
2017-11-09T02:19:10.747Z,8.70
2017-11-09T02:21:36.717Z,8.70
2017-11-09T02:24:02.735Z,8.70
2017-11-09T02:26:28.710Z,8.70
2017-11-09T02:28:54.731Z,8.50
2017-11-09T02:31:20.714Z,8.60
2017-11-09T02:33:48.174Z,8.70
2017-11-09T02:36:14.199Z,8.70
2017-11-09T02:38:40.175Z,8.60
2017-11-09T02:41:06.145Z,8.70
2017-11-09T02:43:32.127Z,8.60
2017-11-09T02:45:58.108Z,8.80
2017-11-09T02:48:24.104Z,8.90
2017-11-09T02:50:50.079Z,8.90
2017-11-09T02:53:16.076Z,8.90
2017-11-09T02:55:42.087Z,8.80
2017-11-09T02:58:08.813Z,8.80
2017-11-09T03:00:34.828Z,8.80
2017-11-09T03:03:00.804Z,8.70
2017-11-09T03:05:26.798Z,8.80
2017-11-09T03:07:53.548Z,8.70
2017-11-09T03:10:19.530Z,8.70
2017-11-09T03:12:45.693Z,8.80
2017-11-09T03:15:11.677Z,8.90
2017-11-09T03:17:37.645Z,8.80
2017-11-09T03:20:03.696Z,8.80
2017-11-09T03:22:29.700Z,8.60
2017-11-09T03:24:55.673Z,8.70
2017-11-09T03:27:21.938Z,8.70
2017-11-09T03:29:47.939Z,8.60
2017-11-09T03:32:14.656Z,8.70
2017-11-09T03:34:40.616Z,8.70
2017-11-09T03:37:06.598Z,8.60
2017-11-09T03:39:32.565Z,8.70
2017-11-09T03:41:58.570Z,8.70
2017-11-09T03:44:25.331Z,8.80
2017-11-09T03:46:51.306Z,8.80
2017-11-09T03:49:17.276Z,8.80
2017-11-09T03:51:43.252Z,8.90
2017-11-09T03:54:09.219Z,8.90
2017-11-09T03:56:35.194Z,8.80
2017-11-09T03:59:01.915Z,8.70
2017-11-09T04:01:27.882Z,8.70
2017-11-09T04:03:53.869Z,8.70
2017-11-09T04:06:19.831Z,8.80
2017-11-09T04:08:45.807Z,8.80
2017-11-09T04:11:11.788Z,8.90
2017-11-09T04:13:37.754Z,8.90
2017-11-09T04:16:03.728Z,8.90
2017-11-09T04:18:30.022Z,8.90
2017-11-09T04:20:56.734Z,8.80
2017-11-09T04:23:22.714Z,8.80
2017-11-09T04:25:48.670Z,8.70
2017-11-09T04:28:14.883Z,8.80
2017-11-09T04:30:40.851Z,8.90
2017-11-09T04:33:07.541Z,8.70
2017-11-09T04:35:33.534Z,8.70
2017-11-09T04:37:59.517Z,8.70
2017-11-09T04:40:25.491Z,8.80
2017-11-09T04:42:51.769Z,8.80
2017-11-09T04:45:17.743Z,8.80
2017-11-09T04:47:43.725Z,8.70
2017-11-09T04:50:10.489Z,8.60
2017-11-09T04:52:36.601Z,8.60
2017-11-09T04:55:03.302Z,8.70
2017-11-09T04:57:29.276Z,8.70
2017-11-09T04:59:55.269Z,8.70
2017-11-09T05:02:21.997Z,8.50
2017-11-09T05:04:48.709Z,8.40
2017-11-09T05:07:14.686Z,8.40
2017-11-09T05:09:40.726Z,8.30
2017-11-09T05:12:06.702Z,8.30
2017-11-09T05:14:32.677Z,8.40
2017-11-09T05:16:58.695Z,8.50
2017-11-09T05:19:24.698Z,8.50
2017-11-09T05:21:50.685Z,8.40
2017-11-09T05:24:16.925Z,8.40
2017-11-09T05:26:43.634Z,8.40
2017-11-09T05:29:09.594Z,8.40
2017-11-09T05:31:36.342Z,8.50
2017-11-09T05:34:02.322Z,8.50
2017-11-09T05:36:28.285Z,8.40
2017-11-09T05:38:55.118Z,8.30
2017-11-09T05:41:21.811Z,8.40
2017-11-09T05:43:47.773Z,8.40
2017-11-09T05:46:14.602Z,8.50
2017-11-09T05:48:41.326Z,8.60
2017-11-09T05:51:07.285Z,8.60
2017-11-09T05:53:33.997Z,8.70
2017-11-09T05:56:00.703Z,8.70
2017-11-09T05:58:26.678Z,8.70
2017-11-09T06:00:52.659Z,8.70
2017-11-09T06:03:18.623Z,8.70
2017-11-09T06:05:44.589Z,8.50
2017-11-09T06:08:10.588Z,8.60
2017-11-09T06:10:36.559Z,8.70
2017-11-09T06:13:02.531Z,8.50
2017-11-09T06:15:28.785Z,8.60
2017-11-09T06:17:54.729Z,8.50
2017-11-09T06:20:20.727Z,8.50
2017-11-09T06:22:46.704Z,8.50
2017-11-09T06:25:13.414Z,8.40
2017-11-09T06:27:39.434Z,8.40
2017-11-09T06:30:06.167Z,8.50
2017-11-09T06:32:32.118Z,8.60
2017-11-09T06:34:58.883Z,8.50
2017-11-09T06:37:31.716Z,8.50
2017-11-09T06:39:57.691Z,8.40
2017-11-09T06:42:23.681Z,8.30
2017-11-09T06:44:50.379Z,8.20
2017-11-09T06:47:16.341Z,8.20
2017-11-09T06:49:43.081Z,8.20
2017-11-09T06:52:09.789Z,8.10
2017-11-09T06:54:35.756Z,8.10
2017-11-09T06:57:01.762Z,8.20
2017-11-09T06:59:28.459Z,8.10
2017-11-09T07:01:54.439Z,8.10
2017-11-09T07:04:20.406Z,8.00
2017-11-09T07:06:46.397Z,8.10
2017-11-09T07:09:12.494Z,8.20
2017-11-09T07:11:39.203Z,8.10
2017-11-09T07:14:05.195Z,8.10
2017-11-09T07:16:31.352Z,8.10
2017-11-09T07:18:57.322Z,8.00
2017-11-09T07:21:23.302Z,8.10
2017-11-09T07:23:49.298Z,8.20
2017-11-09T07:26:15.289Z,8.20
2017-11-09T07:28:41.284Z,8.20
2017-11-09T07:31:07.615Z,8.20
2017-11-09T07:33:34.326Z,8.30
2017-11-09T07:36:00.310Z,8.30
2017-11-09T07:38:26.298Z,8.30
2017-11-09T07:40:53.004Z,8.50
2017-11-09T07:43:20.068Z,8.50
2017-11-09T07:45:46.044Z,8.50
2017-11-09T07:48:12.034Z,8.30
2017-11-09T07:50:38.775Z,8.40
2017-11-09T07:53:04.742Z,8.40
2017-11-09T07:55:30.714Z,8.50
2017-11-09T07:57:56.681Z,8.50
2017-11-09T08:00:22.646Z,8.60
2017-11-09T08:02:49.347Z,8.60
2017-11-09T08:05:15.359Z,8.60
2017-11-09T08:07:41.330Z,8.50
2017-11-09T08:10:07.306Z,8.50
2017-11-09T08:12:33.293Z,8.50
2017-11-09T08:14:59.272Z,8.60
2017-11-09T08:17:25.248Z,8.60
2017-11-09T08:19:51.539Z,8.60
2017-11-09T08:22:18.251Z,8.60
2017-11-09T08:24:48.350Z,8.60
2017-11-09T08:27:15.506Z,8.70
2017-11-09T08:29:43.834Z,8.70
2017-11-09T08:32:12.866Z,8.60
2017-11-09T08:34:39.134Z,8.60
2017-11-09T08:37:05.105Z,8.70
2017-11-09T08:39:31.070Z,8.80
2017-11-09T08:41:57.065Z,8.90
2017-11-09T08:44:23.038Z,8.90
2017-11-09T08:46:49.745Z,8.90
2017-11-09T08:49:15.695Z,8.80
2017-11-09T08:51:42.721Z,8.90
2017-11-09T08:54:08.690Z,8.90
2017-11-09T08:56:34.641Z,8.90
2017-11-09T08:59:00.622Z,9.00
2017-11-09T09:01:26.767Z,8.90
2017-11-09T09:03:52.733Z,8.90
2017-11-09T09:06:19.491Z,9.00
2017-11-09T09:08:46.199Z,8.90
2017-11-09T09:11:12.196Z,8.90
2017-11-09T09:13:38.477Z,8.90
2017-11-09T09:16:05.207Z,8.90
2017-11-09T09:18:31.919Z,9.10
2017-11-09T09:21:01.738Z,9.00
2017-11-09T09:23:27.731Z,9.20
2017-11-09T09:25:59.886Z,9.40
2017-11-09T09:28:31.794Z,9.30
2017-11-09T09:30:57.794Z,9.30
2017-11-09T09:33:27.512Z,9.20
2017-11-09T09:35:57.859Z,9.20
2017-11-09T09:41:35.384Z,9.10
2017-11-09T09:44:02.371Z,9.20
2017-11-09T09:46:28.356Z,9.20
2017-11-09T09:48:55.099Z,9.30
2017-11-09T09:51:21.093Z,9.30
2017-11-09T09:53:47.806Z,9.40
2017-11-09T09:56:13.809Z,9.40
2017-11-09T09:58:39.775Z,9.40
2017-11-09T10:01:05.746Z,9.30
2017-11-09T10:03:31.751Z,9.30
2017-11-09T10:05:57.714Z,9.30
2017-11-09T10:08:23.678Z,9.30
2017-11-09T10:10:51.234Z,9.20
2017-11-09T10:13:17.961Z,9.20
2017-11-09T10:15:44.706Z,9.10
2017-11-09T10:18:11.450Z,9.10
2017-11-09T10:20:38.167Z,9.20
2017-11-09T10:23:04.138Z,9.20
2017-11-09T10:25:30.105Z,9.30
2017-11-09T10:27:56.079Z,9.30
2017-11-09T10:30:22.035Z,9.50
2017-11-09T10:32:48.022Z,9.70
2017-11-09T10:35:13.978Z,9.80
2017-11-09T10:37:39.947Z,9.80
2017-11-09T10:40:05.945Z,9.70
2017-11-09T10:42:31.915Z,9.60
2017-11-09T10:44:57.902Z,9.60
2017-11-09T10:47:24.632Z,9.70
2017-11-09T10:49:50.593Z,9.70
2017-11-09T10:52:16.609Z,9.60
2017-11-09T10:54:42.578Z,9.70
2017-11-09T10:57:08.543Z,9.70
2017-11-09T10:59:34.565Z,9.80
2017-11-09T11:02:00.551Z,9.90
2017-11-09T11:04:26.511Z,9.80
2017-11-09T11:06:52.719Z,9.80
2017-11-09T11:09:19.454Z,9.80
2017-11-09T11:11:46.161Z,9.90
2017-11-09T11:14:12.202Z,9.90
2017-11-09T11:16:38.174Z,9.80
2017-11-09T11:19:04.138Z,9.80
2017-11-09T11:21:30.145Z,9.80
2017-11-09T11:23:56.132Z,9.80
2017-11-09T11:26:22.090Z,9.80
2017-11-09T11:28:48.101Z,9.80
2017-11-09T11:31:14.085Z,9.80
2017-11-09T11:33:40.069Z,9.70
2017-11-09T11:36:06.325Z,9.60
2017-11-09T11:38:33.018Z,9.60
2017-11-09T11:40:59.017Z,9.60
2017-11-09T11:43:26.638Z,9.60
2017-11-09T11:45:53.376Z,9.60
2017-11-09T11:48:20.134Z,9.60
2017-11-09T11:50:46.153Z,9.60
2017-11-09T11:53:12.170Z,9.60
2017-11-09T11:55:38.910Z,9.60
2017-11-09T11:58:05.626Z,9.60
2017-11-09T12:00:31.649Z,9.70
2017-11-09T12:02:57.608Z,9.80
2017-11-09T12:05:23.582Z,9.90
2017-11-09T12:07:49.641Z,10.00
2017-11-09T12:10:16.353Z,9.90
2017-11-09T12:12:42.314Z,9.90
2017-11-09T12:15:08.604Z,10.00
2017-11-09T12:17:34.576Z,9.90
2017-11-09T12:20:00.558Z,10.00
2017-11-09T12:22:28.665Z,9.90
2017-11-09T12:24:54.637Z,9.90
2017-11-09T12:27:20.606Z,9.80
2017-11-09T12:29:46.623Z,9.90
2017-11-09T12:32:12.612Z,9.90
2017-11-09T12:34:38.573Z,9.90
2017-11-09T12:37:04.562Z,9.90
2017-11-09T12:39:31.282Z,9.80
2017-11-09T12:41:57.250Z,9.70
2017-11-09T12:44:23.249Z,9.80
2017-11-09T12:46:49.970Z,9.80
2017-11-09T12:49:15.954Z,9.80
2017-11-09T12:51:41.946Z,9.80
2017-11-09T12:54:07.914Z,9.80
2017-11-09T12:56:33.874Z,9.80
2017-11-09T12:59:00.602Z,9.80
2017-11-09T13:01:27.325Z,9.80
2017-11-09T13:03:53.307Z,9.80
2017-11-09T13:06:19.279Z,9.80
2017-11-09T13:08:45.253Z,9.90
2017-11-09T13:11:11.241Z,9.90
2017-11-09T13:13:37.979Z,9.80
2017-11-09T13:16:04.709Z,9.80
2017-11-09T13:18:31.458Z,9.80
2017-11-09T13:20:58.170Z,9.80
2017-11-09T13:23:24.134Z,9.80
2017-11-09T13:25:50.438Z,9.90
2017-11-09T13:28:17.141Z,9.90
2017-11-09T13:30:43.106Z,9.90
2017-11-09T13:33:09.858Z,9.90
2017-11-09T13:35:35.818Z,9.90
2017-11-09T13:38:01.793Z,9.90
2017-11-09T13:40:27.797Z,9.90
2017-11-09T13:42:59.626Z,9.90
2017-11-09T13:45:25.591Z,10.00
2017-11-09T13:47:52.334Z,10.10
2017-11-09T13:50:19.068Z,10.10
2017-11-09T13:52:45.769Z,10.00
2017-11-09T13:55:11.771Z,10.00
2017-11-09T13:57:37.749Z,9.90
2017-11-09T14:00:04.474Z,9.80
2017-11-09T14:02:31.186Z,9.80
2017-11-09T14:04:57.150Z,9.80
2017-11-09T14:07:23.875Z,9.80
2017-11-09T14:09:49.870Z,9.80
2017-11-09T14:12:15.853Z,9.80
2017-11-09T14:14:41.807Z,9.70
2017-11-09T14:17:07.809Z,9.70
2017-11-09T14:19:33.782Z,9.80
2017-11-09T14:22:00.533Z,9.80
2017-11-09T14:24:27.246Z,9.80
2017-11-09T14:26:53.217Z,9.80
2017-11-09T14:29:19.226Z,9.70
2017-11-09T14:31:45.186Z,9.70
2017-11-09T14:34:11.178Z,9.70
2017-11-09T14:36:37.379Z,9.70
2017-11-09T14:39:04.132Z,9.60
2017-11-09T14:41:30.103Z,9.60
2017-11-09T14:43:56.138Z,9.70
2017-11-09T14:46:22.108Z,9.70
2017-11-09T14:48:48.126Z,9.60
2017-11-09T14:51:14.124Z,9.70
2017-11-09T14:53:40.861Z,9.70
2017-11-09T14:56:06.850Z,9.70
2017-11-09T14:58:33.119Z,9.60
2017-11-09T15:00:59.843Z,9.50
2017-11-09T15:03:25.809Z,9.50
2017-11-09T15:05:51.806Z,9.60
2017-11-09T15:08:18.555Z,9.60
2017-11-09T15:10:44.547Z,9.50
2017-11-09T15:13:10.781Z,9.60
2017-11-09T15:15:37.498Z,9.50
2017-11-09T15:18:03.490Z,9.50
2017-11-09T15:20:29.523Z,9.50
2017-11-09T15:22:55.486Z,9.50
2017-11-09T15:25:22.227Z,9.40
2017-11-09T15:27:49.171Z,9.50
2017-11-09T15:30:15.907Z,9.40
2017-11-09T15:32:41.881Z,9.40
2017-11-09T15:35:10.305Z,9.40
2017-11-09T15:37:37.748Z,9.30
2017-11-09T15:40:03.743Z,9.30
2017-11-09T15:42:29.723Z,9.30
2017-11-09T15:44:56.427Z,9.40
2017-11-09T15:47:22.398Z,9.40
2017-11-09T15:49:48.349Z,9.30
2017-11-09T15:52:14.324Z,9.30
2017-11-09T15:54:41.376Z,9.30
2017-11-09T15:57:07.346Z,9.30
2017-11-09T15:59:33.307Z,9.30
2017-11-09T16:02:00.045Z,9.20
2017-11-09T16:04:26.771Z,9.20
2017-11-09T16:06:52.741Z,9.20
2017-11-09T16:09:18.731Z,9.10
2017-11-09T16:11:45.436Z,9.10
2017-11-09T16:14:11.406Z,9.10
2017-11-09T16:16:37.417Z,9.10
2017-11-09T16:19:04.122Z,9.20
2017-11-09T16:21:30.097Z,9.20
2017-11-09T16:23:56.079Z,9.10
2017-11-09T16:26:22.054Z,9.20
2017-11-09T16:28:48.058Z,9.20
2017-11-09T16:31:14.022Z,9.20
2017-11-09T16:33:40.017Z,9.10
2017-11-09T16:36:06.026Z,9.10
2017-11-09T16:38:31.970Z,9.20
2017-11-09T16:40:57.966Z,9.10
2017-11-09T16:43:23.928Z,9.10
2017-11-09T16:45:49.922Z,9.10
2017-11-09T16:48:16.920Z,9.10
2017-11-09T16:50:42.894Z,9.10
2017-11-09T16:53:08.874Z,9.00
2017-11-09T16:55:35.602Z,9.00
2017-11-09T16:58:01.842Z,9.00
2017-11-09T17:00:28.569Z,9.00
2017-11-09T17:02:54.519Z,9.00
2017-11-09T17:05:20.498Z,9.00
2017-11-09T17:07:46.455Z,8.90
2017-11-09T17:10:12.671Z,9.00
2017-11-09T17:12:39.370Z,9.10
2017-11-09T17:15:10.487Z,9.10
2017-11-09T17:17:36.485Z,9.10
2017-11-09T17:20:02.453Z,9.10
2017-11-09T17:22:28.424Z,9.10
2017-11-09T17:24:54.742Z,9.00
2017-11-09T17:27:21.442Z,9.00
2017-11-09T17:29:47.389Z,9.00
2017-11-09T17:32:13.413Z,9.00
2017-11-09T17:34:39.394Z,8.90
2017-11-09T17:37:05.382Z,8.90
2017-11-09T17:39:32.153Z,8.90
2017-11-09T17:41:58.172Z,8.90
2017-11-09T17:44:24.157Z,8.80
2017-11-09T17:46:50.127Z,8.80
2017-11-09T17:49:16.093Z,8.90
2017-11-09T17:51:42.802Z,8.70
2017-11-09T17:54:08.834Z,8.60
2017-11-09T17:56:34.800Z,8.70
2017-11-09T17:59:00.750Z,8.70
2017-11-09T18:01:26.714Z,8.80
2017-11-09T18:03:53.450Z,8.70
2017-11-09T18:06:20.173Z,8.80
2017-11-09T18:08:46.143Z,8.80
2017-11-09T18:11:12.138Z,8.90
2017-11-09T18:13:38.874Z,8.90
2017-11-09T18:16:05.789Z,8.80
2017-11-09T18:18:35.037Z,8.80
2017-11-09T18:21:06.216Z,8.80
2017-11-09T18:23:33.011Z,8.70
2017-11-09T18:25:59.738Z,8.70
2017-11-09T18:28:26.482Z,8.60
2017-11-09T18:30:53.213Z,8.50
2017-11-09T18:33:19.180Z,8.60
2017-11-09T18:35:45.156Z,8.50
2017-11-09T18:38:11.138Z,8.60
2017-11-09T18:40:37.113Z,8.50
2017-11-09T18:43:03.833Z,8.60
2017-11-09T18:45:29.825Z,8.60
2017-11-09T18:47:55.798Z,8.50
2017-11-09T18:50:23.553Z,8.50
2017-11-09T18:52:50.620Z,8.50
2017-11-09T18:55:16.587Z,8.50
2017-11-09T18:57:50.274Z,8.50
2017-11-09T19:00:18.349Z,8.60
2017-11-09T19:02:47.220Z,8.60
2017-11-09T19:05:13.652Z,8.60
2017-11-09T19:07:39.643Z,8.60
2017-11-09T19:10:05.594Z,8.50
2017-11-09T19:12:33.760Z,8.50
2017-11-09T19:14:59.749Z,8.50
2017-11-09T19:17:26.454Z,8.50
2017-11-09T19:19:52.472Z,8.50
2017-11-09T19:22:18.592Z,8.50
2017-11-09T19:24:47.286Z,8.50
2017-11-09T19:27:13.289Z,8.50
2017-11-09T19:29:39.261Z,8.50
2017-11-09T19:32:05.958Z,8.50
2017-11-09T19:34:32.010Z,8.50
2017-11-09T19:36:57.985Z,8.50
2017-11-09T19:39:25.913Z,8.60
2017-11-09T19:41:51.977Z,8.60
2017-11-09T19:44:17.946Z,8.60
2017-11-09T19:46:43.932Z,8.60
2017-11-09T19:49:10.209Z,8.60
2017-11-09T19:51:36.221Z,8.60
2017-11-09T19:54:02.196Z,8.60
2017-11-09T19:56:28.520Z,8.50
2017-11-09T19:58:54.744Z,8.60
2017-11-09T20:01:20.733Z,8.50
2017-11-09T20:03:47.479Z,8.60
2017-11-09T20:06:14.305Z,8.50
2017-11-09T20:08:40.270Z,8.50
2017-11-09T20:11:07.109Z,8.40
2017-11-09T20:13:33.094Z,8.30
2017-11-09T20:15:59.801Z,8.40
2017-11-09T20:18:25.794Z,8.40
2017-11-09T20:20:51.771Z,8.50
2017-11-09T20:23:17.735Z,8.50
2017-11-09T20:25:43.742Z,8.50
2017-11-09T20:28:09.710Z,8.50
2017-11-09T20:30:36.438Z,8.50
2017-11-09T20:33:02.453Z,8.50
2017-11-09T20:35:28.434Z,8.60
2017-11-09T20:37:59.495Z,8.60
2017-11-09T20:40:25.508Z,8.60
2017-11-09T20:42:51.517Z,8.60
2017-11-09T20:45:18.271Z,8.40
2017-11-09T20:47:44.531Z,8.40
2017-11-09T20:50:10.545Z,8.40
2017-11-09T20:52:36.515Z,8.40
2017-11-09T20:55:02.483Z,8.50
2017-11-09T20:57:28.454Z,8.40
2017-11-09T20:59:55.210Z,8.40
2017-11-09T21:02:24.101Z,8.50
2017-11-09T21:04:50.089Z,8.50
2017-11-09T21:07:16.062Z,8.50
2017-11-09T21:09:42.055Z,8.40
2017-11-09T21:12:08.794Z,8.40
2017-11-09T21:14:35.504Z,8.40
2017-11-09T21:17:01.474Z,8.40
2017-11-09T21:19:27.434Z,8.40
2017-11-09T21:21:53.442Z,8.40
2017-11-09T21:24:19.430Z,8.50
2017-11-09T21:26:46.168Z,8.50
2017-11-09T21:29:12.890Z,8.50
2017-11-09T21:31:39.071Z,8.50
2017-11-09T21:34:05.032Z,8.50
2017-11-09T21:36:31.013Z,8.50
2017-11-09T21:38:57.001Z,8.50
2017-11-09T21:41:23.702Z,8.50
2017-11-09T21:43:49.671Z,8.50
2017-11-09T21:46:15.903Z,8.50
2017-11-09T21:48:41.862Z,8.50
2017-11-09T21:51:09.754Z,8.60
2017-11-09T21:53:35.889Z,8.50
2017-11-09T21:56:02.652Z,8.60
2017-11-09T21:58:28.711Z,8.60
2017-11-09T22:00:55.003Z,8.60
2017-11-09T22:03:20.954Z,8.50
2017-11-09T22:05:46.962Z,8.60
2017-11-09T22:08:12.941Z,8.60
2017-11-09T22:10:38.923Z,8.70
2017-11-09T22:13:04.877Z,8.80
2017-11-09T22:15:31.614Z,8.70
2017-11-09T22:17:57.584Z,8.70
2017-11-09T22:20:23.557Z,8.70
2017-11-09T22:22:49.793Z,8.70
2017-11-09T22:25:15.790Z,8.80
2017-11-09T22:27:41.746Z,8.80
2017-11-09T22:30:08.487Z,8.80
2017-11-09T22:32:35.228Z,8.80
2017-11-09T22:35:01.938Z,8.80
2017-11-09T22:37:28.195Z,8.80
2017-11-09T22:40:01.705Z,8.80
2017-11-09T22:42:27.858Z,8.80
2017-11-09T22:44:53.847Z,8.90
2017-11-09T22:47:20.545Z,8.90
2017-11-09T22:49:46.574Z,8.90
2017-11-09T22:52:12.570Z,8.90
2017-11-09T22:54:38.517Z,8.90
2017-11-09T22:57:04.493Z,8.80
2017-11-09T22:59:30.437Z,8.90
2017-11-09T23:01:56.421Z,8.90
2017-11-09T23:04:22.394Z,8.90
2017-11-09T23:06:48.357Z,8.90
2017-11-09T23:09:15.290Z,9.00
2017-11-09T23:11:42.005Z,9.00
2017-11-09T23:14:07.982Z,9.00
2017-11-09T23:16:34.192Z,9.00
2017-11-09T23:19:00.174Z,9.00
2017-11-09T23:21:26.145Z,9.00
2017-11-09T23:23:52.134Z,9.00
2017-11-09T23:26:18.874Z,9.00
2017-11-09T23:28:45.586Z,9.00
2017-11-09T23:31:11.576Z,9.00
2017-11-09T23:33:37.551Z,9.00
2017-11-09T23:36:03.514Z,9.00
2017-11-09T23:38:29.506Z,9.00
2017-11-09T23:40:55.469Z,9.10
2017-11-09T23:43:21.413Z,9.10
2017-11-09T23:45:47.386Z,9.00
2017-11-09T23:48:13.349Z,9.10
2017-11-09T23:50:39.336Z,9.10
2017-11-09T23:53:05.295Z,9.10
2017-11-09T23:55:31.297Z,9.10
2017-11-09T23:57:57.541Z,9.10
